createdAt,value
2022-09-23T00:00:27.179Z,6.73
2022-09-23T00:05:33.587Z,6.76
2022-09-23T00:10:40.896Z,6.72
2022-09-23T00:15:48.539Z,6.21
2022-09-23T00:20:53.508Z,6.33
2022-09-23T00:26:02.635Z,6.37
2022-09-23T00:31:12.622Z,6.53
2022-09-23T00:36:19.034Z,6.62
2022-09-23T00:41:24.615Z,6.51
2022-09-23T00:46:37.837Z,6.37
2022-09-23T00:51:48.961Z,6.62
2022-09-23T00:56:54.349Z,6.29
2022-09-23T01:02:05.803Z,6.21
2022-09-23T01:07:10.774Z,6.44
2022-09-23T01:12:33.193Z,6.31
2022-09-23T01:17:47.688Z,6.38
2022-09-23T01:22:59.591Z,6.02
2022-09-23T01:28:33.481Z,5.79
2022-09-23T01:33:47.767Z,5.69
2022-09-23T01:39:00.150Z,5.66
2022-09-23T01:44:11.157Z,5.84
2022-09-23T01:49:24.970Z,5.87
2022-09-23T01:54:38.881Z,5.89
2022-09-23T01:59:48.254Z,5.73
2022-09-23T02:05:03.030Z,5.81
2022-09-23T02:10:16.722Z,5.93
2022-09-23T02:15:25.890Z,5.88
2022-09-23T02:20:42.183Z,5.82
2022-09-23T02:25:57.334Z,5.80
2022-09-23T02:31:11.965Z,5.94
2022-09-23T02:36:29.795Z,5.99
2022-09-23T02:41:43.160Z,5.74
2022-09-23T02:46:50.331Z,5.89
2022-09-23T02:51:58.563Z,5.93
2022-09-23T02:57:05.647Z,5.73
2022-09-23T03:02:31.071Z,5.63
2022-09-23T03:07:50.655Z,5.72
2022-09-23T03:13:07.705Z,5.73
2022-09-23T03:18:20.496Z,5.67
2022-09-23T03:23:32.286Z,5.61
2022-09-23T03:28:39.814Z,5.55
2022-09-23T03:33:49.405Z,5.58
2022-09-23T03:39:04.482Z,5.70
2022-09-23T03:44:10.945Z,5.92
2022-09-23T03:49:19.269Z,5.74
2022-09-23T03:54:30.152Z,5.70
2022-09-23T03:59:35.013Z,5.60
2022-09-23T04:04:41.215Z,5.64
2022-09-23T04:09:48.886Z,5.63
2022-09-23T04:14:53.951Z,5.68
2022-09-23T04:19:58.997Z,5.69
2022-09-23T04:25:07.904Z,5.65
2022-09-23T04:30:14.454Z,5.60
2022-09-23T04:35:19.853Z,5.75
2022-09-23T04:40:27.421Z,5.75
2022-09-23T04:45:32.399Z,5.70
2022-09-23T04:50:39.801Z,5.67
2022-09-23T04:55:47.528Z,5.45
2022-09-23T05:00:52.645Z,5.49
2022-09-23T05:06:02.196Z,6.86
2022-09-23T05:11:12.613Z,6.32
2022-09-23T05:16:20.174Z,6.37
2022-09-23T05:21:27.588Z,6.09
2022-09-23T05:26:36.129Z,6.01
2022-09-23T05:31:42.010Z,6.22
2022-09-23T05:36:48.471Z,6.25
2022-09-23T05:41:57.692Z,8.95
2022-09-23T05:47:02.963Z,12.49
2022-09-23T05:52:08.178Z,13.82
2022-09-23T05:57:15.808Z,14.27
2022-09-23T06:02:20.925Z,14.07
2022-09-23T06:07:25.851Z,15.84
2022-09-23T06:12:33.653Z,15.59
2022-09-23T06:17:38.515Z,16.37
2022-09-23T06:22:43.752Z,17.17
2022-09-23T06:27:57.164Z,15.72
2022-09-23T06:33:02.527Z,16.83
2022-09-23T06:38:08.097Z,16.75
2022-09-23T06:43:15.770Z,17.30
2022-09-23T06:48:29.649Z,16.66
2022-09-23T06:53:39.730Z,16.30
2022-09-23T06:58:47.349Z,14.71
2022-09-23T07:03:52.619Z,14.31
2022-09-23T07:08:57.825Z,15.14
2022-09-23T07:14:05.953Z,15.12
2022-09-23T07:19:10.909Z,16.57
2022-09-23T07:24:15.862Z,18.50
2022-09-23T07:29:23.579Z,18.63
2022-09-23T07:34:29.040Z,18.55
2022-09-23T07:39:36.816Z,18.13
2022-09-23T07:44:47.916Z,18.55
2022-09-23T07:49:54.318Z,19.33
2022-09-23T07:54:59.195Z,19.65
2022-09-23T08:00:08.276Z,19.18
2022-09-23T08:05:18.871Z,19.79
2022-09-23T08:10:25.209Z,20.05
2022-09-23T08:15:34.482Z,19.56
2022-09-23T08:20:48.680Z,19.61
2022-09-23T08:26:00.616Z,23.75
2022-09-23T08:31:09.265Z,22.77
2022-09-23T08:36:18.157Z,24.03
2022-09-23T08:41:28.673Z,23.83
2022-09-23T08:46:40.486Z,21.01
2022-09-23T08:51:49.301Z,18.91
2022-09-23T08:56:55.847Z,18.52
2022-09-23T09:02:08.562Z,20.82
2022-09-23T09:07:35.639Z,24.13
2022-09-23T09:12:45.088Z,21.20
2022-09-23T09:18:02.995Z,20.89
2022-09-23T09:23:23.573Z,20.11
2022-09-23T09:28:36.082Z,22.80
2022-09-23T09:33:51.404Z,22.59
2022-09-23T09:38:58.790Z,19.72
2022-09-23T09:44:09.625Z,21.94
2022-09-23T09:49:28.659Z,20.97
2022-09-23T09:54:35.104Z,21.05
2022-09-23T09:59:44.469Z,20.76
2022-09-23T10:04:59.973Z,21.76
2022-09-23T10:10:39.519Z,22.67
2022-09-23T10:15:48.826Z,23.66
2022-09-23T10:21:13.612Z,22.90
2022-09-23T10:26:19.897Z,22.61
2022-09-23T10:31:28.097Z,22.81
2022-09-23T10:36:36.186Z,22.44
2022-09-23T10:42:02.462Z,20.40
2022-09-23T10:47:17.427Z,21.59
2022-09-23T10:52:55.235Z,21.56
2022-09-23T10:58:21.027Z,21.40
2022-09-23T11:04:02.821Z,21.35
2022-09-23T11:09:29.459Z,21.34
2022-09-23T11:14:54.025Z,21.50
2022-09-23T11:20:22.088Z,20.65
2022-09-23T11:25:50.886Z,20.67
2022-09-23T11:31:04.401Z,20.58
2022-09-23T11:36:14.810Z,20.26
2022-09-23T11:41:28.132Z,20.14
2022-09-23T11:46:41.100Z,20.34
2022-09-23T11:51:55.961Z,19.83
2022-09-23T11:57:15.958Z,17.48
2022-09-23T12:02:30.890Z,18.25
2022-09-23T12:07:46.506Z,18.67
2022-09-23T12:13:02.196Z,18.69
2022-09-23T12:18:25.883Z,18.15
2022-09-23T12:23:51.807Z,18.66
2022-09-23T12:29:05.191Z,17.91
2022-09-23T12:34:25.100Z,18.33
2022-09-23T12:39:34.624Z,19.34
2022-09-23T12:44:44.501Z,18.78
2022-09-23T12:49:50.897Z,17.59
2022-09-23T12:55:00.091Z,18.00
2022-09-23T13:00:34.107Z,17.87
2022-09-23T13:06:00.994Z,18.67
2022-09-23T13:11:10.060Z,18.99
2022-09-23T13:16:28.254Z,18.43
2022-09-23T13:22:08.108Z,18.46
2022-09-23T13:27:24.864Z,18.40
2022-09-23T13:32:36.114Z,18.70
2022-09-23T13:37:46.293Z,18.12
2022-09-23T13:42:58.638Z,17.55
2022-09-23T13:48:11.451Z,17.86
2022-09-23T13:53:23.370Z,18.30
2022-09-23T13:58:32.522Z,17.91
2022-09-23T14:03:42.360Z,17.54
2022-09-23T14:08:50.032Z,17.96
2022-09-23T14:13:56.314Z,17.93
2022-09-23T14:19:04.971Z,18.00
2022-09-23T14:24:18.973Z,17.74
2022-09-23T14:29:28.309Z,17.71
2022-09-23T14:34:52.265Z,18.36
2022-09-23T14:39:58.011Z,17.95
2022-09-23T14:45:03.276Z,17.51
2022-09-23T14:50:31.095Z,17.94
2022-09-23T14:55:38.113Z,17.92
2022-09-23T15:00:47.716Z,17.55
2022-09-23T15:06:03.117Z,17.16
2022-09-23T15:11:11.333Z,17.52
2022-09-23T15:16:19.981Z,17.06
2022-09-23T15:21:35.306Z,17.25
2022-09-23T15:26:48.544Z,17.51
2022-09-23T15:31:55.401Z,17.43
2022-09-23T15:37:03.642Z,17.00
2022-09-23T15:42:10.456Z,17.07
2022-09-23T15:47:22.534Z,16.96
2022-09-23T15:52:30.312Z,16.79
2022-09-23T15:57:35.134Z,16.85
2022-09-23T16:02:40.300Z,16.80
2022-09-23T16:07:48.631Z,16.28
2022-09-23T16:12:56.606Z,16.20
2022-09-23T16:18:01.981Z,16.18
2022-09-23T16:23:16.072Z,15.93
2022-09-23T16:28:20.986Z,15.85
2022-09-23T16:33:27.639Z,15.59
2022-09-23T16:38:35.476Z,15.30
2022-09-23T16:43:42.559Z,15.30
2022-09-23T16:48:52.392Z,14.96
2022-09-23T16:54:02.070Z,14.65
2022-09-23T16:59:07.220Z,14.14
2022-09-23T17:04:13.311Z,13.95
2022-09-23T17:09:21.786Z,13.76
2022-09-23T17:14:26.800Z,13.68
2022-09-23T17:19:31.969Z,13.60
2022-09-23T17:24:43.944Z,13.23
2022-09-23T17:29:48.793Z,13.46
2022-09-23T17:34:54.136Z,13.17
2022-09-23T17:40:02.748Z,13.33
2022-09-23T17:45:08.695Z,13.11
2022-09-23T17:50:15.137Z,12.77
2022-09-23T17:55:22.785Z,12.91
2022-09-23T18:00:28.167Z,13.00
2022-09-23T18:05:33.209Z,12.65
2022-09-23T18:10:40.852Z,12.74
2022-09-23T18:15:46.113Z,12.81
2022-09-23T18:20:51.019Z,12.61
2022-09-23T18:25:58.978Z,12.40
2022-09-23T18:31:03.819Z,12.04
2022-09-23T18:36:12.064Z,12.02
2022-09-23T18:41:20.403Z,11.78
2022-09-23T18:46:30.195Z,11.63
2022-09-23T18:51:38.295Z,11.89
2022-09-23T18:56:47.015Z,11.85
2022-09-23T19:01:55.123Z,11.95
2022-09-23T19:07:00.853Z,11.64
2022-09-23T19:12:08.572Z,11.40
2022-09-23T19:17:14.082Z,11.33
2022-09-23T19:22:19.569Z,11.29
2022-09-23T19:27:27.163Z,11.45
2022-09-23T19:32:33.454Z,11.40
2022-09-23T19:37:38.598Z,11.18
2022-09-23T19:42:46.488Z,11.00
2022-09-23T19:47:56.538Z,10.87
2022-09-23T19:53:04.826Z,10.95
2022-09-23T19:58:14.657Z,10.81
2022-09-23T20:03:20.708Z,10.78
2022-09-23T20:08:27.112Z,10.52
2022-09-23T20:13:34.804Z,10.58
2022-09-23T20:18:39.930Z,10.42
2022-09-23T20:23:45.376Z,10.49
2022-09-23T20:28:53.310Z,10.69
2022-09-23T20:34:00.220Z,10.59
2022-09-23T20:39:08.113Z,10.52
2022-09-23T20:44:16.117Z,10.49
2022-09-23T20:49:21.401Z,10.54
2022-09-23T20:54:26.467Z,10.39
2022-09-23T20:59:34.189Z,10.25
2022-09-23T21:04:39.119Z,10.22
2022-09-23T21:09:44.041Z,10.17
2022-09-23T21:14:51.776Z,10.11
2022-09-23T21:19:56.726Z,9.99
2022-09-23T21:25:30.134Z,9.77
2022-09-23T21:30:29.351Z,9.85
2022-09-23T21:35:34.394Z,9.79
2022-09-23T21:40:51.672Z,9.74
2022-09-23T21:46:04.502Z,9.70
2022-09-23T21:51:11.932Z,9.85
2022-09-23T21:56:21.007Z,9.85
2022-09-23T22:01:30.935Z,9.82
2022-09-23T22:06:37.600Z,9.88
2022-09-23T22:11:56.411Z,9.94
2022-09-23T22:17:06.631Z,9.94
2022-09-23T22:22:15.511Z,9.85
2022-09-23T22:27:22.371Z,9.64
2022-09-23T22:32:46.414Z,9.68
2022-09-23T22:37:51.174Z,9.85
2022-09-23T22:42:56.977Z,9.82
2022-09-23T22:48:07.479Z,9.90
2022-09-23T22:53:12.875Z,9.86
2022-09-23T22:58:31.773Z,9.96
2022-09-23T23:03:40.578Z,10.08
2022-09-23T23:08:45.453Z,10.02
2022-09-23T23:13:50.363Z,10.13
2022-09-23T23:18:57.960Z,10.12
2022-09-23T23:24:04.118Z,10.15
2022-09-23T23:29:08.918Z,10.25
2022-09-23T23:34:19.147Z,10.12
2022-09-23T23:39:24.710Z,10.38
2022-09-23T23:44:31.207Z,10.28
2022-09-23T23:49:38.887Z,10.24
2022-09-23T23:54:44.264Z,10.38
2022-09-23T23:59:49.176Z,10.46
